Time;durP1;ratioP1;P1;durP2;ratioP2;P2;SDS_P1;SDS_P2;PMS_P1;PMS_P2;Temp;Humidity;BMP_temperature;BMP_pressure;BME280_temperature;BME280_humidity;BME280_pressure;Samples;Min_cycle;Max_cycle;Signal;HPM_P1;HPM_P2
2023/06/15 00:02:21;;;;;;;0.30;0.30;;;17.40;99.90;;;;;;5095788;28;20102;-69
2023/06/15 00:04:46;;;;;;;0.30;0.30;;;17.30;99.90;;;;;;5095477;28;20059;-69
2023/06/15 00:07:12;;;;;;;0.40;0.40;;;17.20;99.90;;;;;;5096161;28;20047;-70
2023/06/15 00:09:37;;;;;;;0.30;0.30;;;17.30;99.90;;;;;;5096009;28;20464;-70
2023/06/15 00:12:03;;;;;;;0.30;0.30;;;17.20;99.90;;;;;;5095903;28;20043;-70
2023/06/15 00:14:30;;;;;;;0.30;0.30;;;17.10;99.90;;;;;;5095612;28;20032;-70
2023/06/15 00:16:57;;;;;;;0.30;0.30;;;17.10;99.90;;;;;;5095542;28;20380;-70
2023/06/15 00:19:23;;;;;;;0.30;0.30;;;17.20;99.90;;;;;;5094839;28;20042;-70
2023/06/15 00:21:49;;;;;;;0.30;0.30;;;17.10;99.90;;;;;;5096067;28;20036;-70
2023/06/15 00:24:15;;;;;;;0.50;0.50;;;17.10;99.90;;;;;;5095433;28;20460;-70
2023/06/15 00:26:42;;;;;;;0.30;0.30;;;17.10;99.90;;;;;;5095110;28;20131;-69
2023/06/15 00:29:07;;;;;;;0.30;0.30;;;17.00;99.90;;;;;;5095413;28;20138;-69
2023/06/15 00:31:34;;;;;;;0.40;0.40;;;17.00;99.90;;;;;;5095357;28;20491;-69
2023/06/15 00:34:00;;;;;;;0.30;0.30;;;17.00;99.90;;;;;;5095750;28;20122;-70
2023/06/15 00:36:26;;;;;;;0.30;0.30;;;16.90;99.90;;;;;;5095283;28;20119;-70
2023/06/15 00:38:51;;;;;;;0.30;0.30;;;16.90;99.90;;;;;;5095132;28;20428;-70
2023/06/15 00:41:17;;;;;;;0.30;0.30;;;16.90;99.90;;;;;;5095273;28;20048;-70
2023/06/15 00:43:42;;;;;;;0.30;0.30;;;16.80;99.90;;;;;;5095114;28;20047;-69
2023/06/15 00:46:09;;;;;;;0.30;0.30;;;16.70;99.90;;;;;;5095027;28;20071;-70
2023/06/15 00:48:35;;;;;;;0.60;0.60;;;16.70;99.90;;;;;;5094969;28;20046;-70
2023/06/15 00:51:01;;;;;;;0.30;0.30;;;16.80;99.90;;;;;;5094932;28;20123;-71
2023/06/15 00:53:26;;;;;;;0.30;0.30;;;16.70;99.90;;;;;;5095219;28;20036;-70
2023/06/15 00:55:52;;;;;;;0.30;0.30;;;16.70;99.90;;;;;;5094702;28;20448;-70
2023/06/15 00:58:19;;;;;;;0.30;0.30;;;16.60;99.90;;;;;;5094752;28;20040;-70
2023/06/15 01:00:48;;;;;;;;;;;16.60;99.90;;;;;;5095158;28;20044;-70
2023/06/15 01:03:15;;;;;;;0.30;0.30;;;16.60;99.90;;;;;;5094514;28;19916;-69
2023/06/15 01:05:44;;;;;;;0.30;0.30;;;16.40;99.90;;;;;;5095255;28;20048;-69
2023/06/15 01:08:11;;;;;;;0.30;0.30;;;16.50;99.90;;;;;;5094952;28;20040;-69
2023/06/15 01:10:38;;;;;;;0.30;0.30;;;16.40;99.90;;;;;;5093603;28;20067;-69
2023/06/15 01:13:05;;;;;;;0.40;0.40;;;16.30;99.90;;;;;;5094513;28;20032;-69
2023/06/15 01:15:31;;;;;;;0.30;0.30;;;16.30;99.90;;;;;;5094479;28;20048;-70
2023/06/15 01:18:02;;;;;;;0.30;0.30;;;16.30;99.90;;;;;;5094848;28;20144;-70
2023/06/15 01:20:38;;;;;;;0.30;0.30;;;16.30;99.90;;;;;;5094476;28;20376;-69
2023/06/15 01:23:36;;;;;;;0.30;0.30;;;16.20;99.90;;;;;;5094405;28;20514;-69
2023/06/15 01:26:10;;;;;;;0.30;0.30;;;16.20;99.90;;;;;;5094307;28;20123;-69
2023/06/15 01:28:45;;;;;;;0.30;0.30;;;16.20;99.90;;;;;;5094792;28;20357;-69
2023/06/15 01:31:12;;;;;;;0.30;0.30;;;16.20;99.90;;;;;;5094204;28;20054;-69
2023/06/15 01:33:48;;;;;;;0.30;0.30;;;16.20;99.90;;;;;;5094229;28;20040;-69
2023/06/15 01:36:14;;;;;;;0.30;0.30;;;16.20;99.90;;;;;;5093951;28;20510;-70
2023/06/15 01:38:41;;;;;;;0.30;0.30;;;16.10;99.90;;;;;;5094030;28;20090;-69
2023/06/15 01:41:08;;;;;;;0.30;0.30;;;16.10;99.90;;;;;;5094066;28;20357;-70
2023/06/15 01:43:36;;;;;;;0.40;0.40;;;16.10;99.90;;;;;;5094080;28;20036;-70
2023/06/15 01:46:03;;;;;;;0.32;0.32;;;16.00;99.90;;;;;;5094055;28;20059;-70
2023/06/15 01:48:30;;;;;;;0.40;0.40;;;16.00;99.90;;;;;;5093998;28;20040;-69
2023/06/15 01:50:56;;;;;;;0.30;0.30;;;15.90;99.90;;;;;;5093992;28;20123;-69
2023/06/15 01:53:23;;;;;;;0.40;0.40;;;15.90;99.90;;;;;;5093955;28;20062;-69
2023/06/15 01:55:50;;;;;;;0.30;0.30;;;15.80;99.90;;;;;;5093950;28;20048;-70
2023/06/15 01:58:16;;;;;;;0.40;0.40;;;15.80;99.90;;;;;;5093862;28;20462;-70
2023/06/15 02:00:43;;;;;;;0.30;0.30;;;15.70;99.90;;;;;;5093859;28;20492;-69
2023/06/15 02:03:09;;;;;;;;;;;15.70;99.90;;;;;;5094271;28;20040;-69
2023/06/15 02:05:39;;;;;;;0.30;0.30;;;15.60;99.90;;;;;;5094000;28;19969;-69
2023/06/15 02:08:06;;;;;;;0.47;0.47;;;15.60;99.90;;;;;;5093798;28;20101;-69
2023/06/15 02:10:32;;;;;;;0.40;0.40;;;15.60;99.90;;;;;;5093788;28;20051;-69
2023/06/15 02:12:58;;;;;;;0.40;0.40;;;15.50;99.90;;;;;;5094125;28;20097;-69
2023/06/15 02:15:24;;;;;;;2.50;0.70;;;15.40;99.90;;;;;;5093937;28;20040;-69
2023/06/15 02:17:59;;;;;;;0.40;0.40;;;15.30;99.90;;;;;;5093804;28;20044;-70
2023/06/15 02:20:25;;;;;;;0.40;0.40;;;15.30;99.90;;;;;;5093694;28;20043;-70
2023/06/15 02:22:52;;;;;;;0.40;0.40;;;15.30;99.90;;;;;;5075835;28;20046;-69
2023/06/15 02:25:19;;;;;;;0.32;0.32;;;15.20;99.90;;;;;;5093648;28;20122;-70
2023/06/15 02:27:45;;;;;;;0.40;0.40;;;15.20;99.90;;;;;;5093629;28;20068;-70
2023/06/15 02:30:12;;;;;;;0.40;0.40;;;15.10;99.90;;;;;;5093608;28;20047;-70
2023/06/15 02:32:39;;;;;;;;;;;15.10;99.90;;;;;;5093908;28;20285;-69
2023/06/15 02:35:08;;;;;;;0.40;0.40;;;15.00;99.90;;;;;;5092358;28;19915;-69
2023/06/15 02:37:33;;;;;;;0.40;0.40;;;15.00;99.90;;;;;;5093464;28;20040;-70
2023/06/15 02:39:59;;;;;;;0.43;0.43;;;15.00;99.90;;;;;;5093481;28;20036;-70
2023/06/15 02:42:25;;;;;;;0.40;0.40;;;14.90;99.90;;;;;;5093676;28;20093;-70
2023/06/15 02:44:51;;;;;;;0.60;0.60;;;14.80;99.90;;;;;;5096449;28;20044;-71
2023/06/15 02:47:17;;;;;;;3.20;1.13;;;14.80;99.90;;;;;;5097352;28;20479;-69
2023/06/15 02:49:42;;;;;;;0.40;0.40;;;14.80;99.90;;;;;;5097219;28;20062;-70
2023/06/15 02:52:08;;;;;;;0.40;0.40;;;14.80;99.90;;;;;;5096036;28;20547;-70
2023/06/15 02:54:36;;;;;;;0.50;0.50;;;14.80;99.90;;;;;;5097621;28;20101;-69
2023/06/15 02:57:06;;;;;;;0.40;0.40;;;14.80;99.90;;;;;;5097423;28;20040;-69
2023/06/15 02:59:36;;;;;;;0.40;0.40;;;14.70;99.90;;;;;;5097036;28;20078;-69
2023/06/15 03:02:04;;;;;;;0.40;0.40;;;14.70;99.90;;;;;;5096967;28;20040;-69
2023/06/15 03:04:32;;;;;;;0.40;0.40;;;14.60;99.90;;;;;;5096590;28;20062;-70
2023/06/15 03:06:59;;;;;;;0.40;0.40;;;14.60;99.90;;;;;;5097334;28;20044;-69
2023/06/15 03:09:25;;;;;;;0.45;0.45;;;14.50;99.90;;;;;;5095546;28;20165;-70
2023/06/15 03:11:50;;;;;;;0.50;0.50;;;14.50;99.90;;;;;;5097031;28;20512;-70
2023/06/15 03:14:19;;;;;;;0.50;0.50;;;14.30;99.90;;;;;;5096686;28;20047;-70
2023/06/15 03:16:48;;;;;;;0.50;0.50;;;14.40;99.90;;;;;;5096670;28;20039;-68
2023/06/15 03:19:17;;;;;;;0.40;0.40;;;14.40;99.90;;;;;;5096659;28;20042;-69
2023/06/15 03:21:44;;;;;;;0.50;0.50;;;14.40;99.90;;;;;;5096642;28;20044;-70
2023/06/15 03:24:10;;;;;;;0.50;0.50;;;14.40;99.90;;;;;;5096582;28;20036;-69
2023/06/15 03:26:36;;;;;;;0.60;0.60;;;14.30;99.90;;;;;;5096619;28;20067;-70
2023/06/15 03:29:02;;;;;;;0.60;0.60;;;14.40;99.90;;;;;;5096668;28;20043;-69
2023/06/15 03:31:33;;;;;;;0.60;0.60;;;14.40;99.90;;;;;;5096447;28;20036;-69
2023/06/15 03:34:00;;;;;;;0.50;0.50;;;14.30;99.90;;;;;;5096922;28;20274;-69
2023/06/15 03:36:29;;;;;;;;;;;14.30;99.90;;;;;;5097115;28;20040;-69
2023/06/15 03:38:56;;;;;;;0.50;0.50;;;14.30;99.90;;;;;;5095971;28;20356;-69
2023/06/15 03:41:22;;;;;;;0.50;0.50;;;14.30;99.90;;;;;;5096273;28;20077;-69
2023/06/15 03:43:47;;;;;;;0.60;0.60;;;14.30;99.90;;;;;;5096346;28;20047;-69
2023/06/15 03:46:13;;;;;;;0.50;0.50;;;14.30;99.90;;;;;;5096147;28;20036;-69
2023/06/15 03:48:40;;;;;;;0.60;0.60;;;14.30;99.90;;;;;;5096346;28;20058;-70
2023/06/15 03:51:05;;;;;;;0.50;0.50;;;14.40;99.90;;;;;;5096582;28;20140;-69
2023/06/15 03:53:31;;;;;;;0.50;0.50;;;14.40;99.90;;;;;;5095963;28;20075;-69
2023/06/15 03:55:56;;;;;;;0.60;0.60;;;14.50;99.90;;;;;;5096058;28;20144;-69
2023/06/15 03:58:24;;;;;;;0.50;0.50;;;14.40;99.90;;;;;;5095959;28;20040;-69
2023/06/15 04:00:50;;;;;;;0.40;0.40;;;14.50;99.90;;;;;;5095825;28;20506;-69
2023/06/15 04:03:16;;;;;;;0.40;0.40;;;14.50;99.90;;;;;;5095921;28;20036;-69
2023/06/15 04:05:42;;;;;;;0.40;0.40;;;14.70;99.90;;;;;;5096330;28;20050;-69
2023/06/15 04:08:08;;;;;;;0.50;0.50;;;14.70;99.90;;;;;;5096062;28;20043;-69
2023/06/15 04:10:34;;;;;;;0.40;0.40;;;14.70;99.90;;;;;;5095803;28;20085;-69
2023/06/15 04:13:00;;;;;;;0.40;0.40;;;14.70;99.90;;;;;;5095708;28;20040;-70
2023/06/15 04:15:26;;;;;;;0.37;0.37;;;14.80;99.90;;;;;;5095578;28;20124;-68
2023/06/15 04:17:51;;;;;;;0.40;0.40;;;14.80;99.90;;;;;;5095875;28;20082;-69
2023/06/15 04:20:17;;;;;;;0.40;0.40;;;14.80;99.90;;;;;;5095928;28;20040;-69
2023/06/15 04:22:43;;;;;;;0.30;0.30;;;14.90;99.90;;;;;;5095800;28;20040;-69
2023/06/15 04:25:09;;;;;;;0.40;0.40;;;14.80;99.90;;;;;;5095243;28;20040;-70
2023/06/15 04:27:35;;;;;;;0.80;0.80;;;14.90;99.90;;;;;;5095427;28;20036;-68
2023/06/15 04:30:05;;;;;;;0.40;0.40;;;14.90;99.90;;;;;;5095313;28;20145;-69
2023/06/15 04:32:32;;;;;;;0.40;0.40;;;15.00;99.90;;;;;;5095299;28;20299;-69
2023/06/15 04:34:59;;;;;;;0.40;0.40;;;15.00;99.90;;;;;;5095551;28;20050;-70
2023/06/15 04:37:28;;;;;;;0.30;0.30;;;15.10;99.90;;;;;;5095693;28;20125;-70
2023/06/15 04:39:59;;;;;;;0.40;0.40;;;15.10;99.90;;;;;;5095187;28;20040;-70
2023/06/15 04:42:26;;;;;;;0.40;0.40;;;15.20;99.90;;;;;;5095114;28;20468;-70
2023/06/15 04:44:53;;;;;;;0.40;0.40;;;15.20;99.90;;;;;;5095056;28;20044;-69
2023/06/15 04:47:18;;;;;;;1.20;1.10;;;15.30;99.90;;;;;;5095094;28;20048;-69
2023/06/15 04:49:44;;;;;;;0.53;0.53;;;15.30;99.90;;;;;;5095319;28;20132;-69
2023/06/15 04:52:10;;;;;;;0.30;0.30;;;15.30;99.90;;;;;;5094921;28;20368;-70
2023/06/15 04:54:36;;;;;;;0.40;0.40;;;15.40;99.90;;;;;;5094900;28;20039;-69
2023/06/15 04:57:01;;;;;;;0.40;0.40;;;15.50;99.90;;;;;;5093937;28;20032;-70
2023/06/15 04:59:27;;;;;;;0.30;0.30;;;15.50;99.90;;;;;;5094770;28;20040;-69
2023/06/15 05:01:53;;;;;;;0.57;0.57;;;15.50;99.90;;;;;;5094422;28;20058;-69
2023/06/15 05:04:21;;;;;;;0.40;0.40;;;15.60;99.90;;;;;;5094856;28;20065;-69
2023/06/15 05:06:47;;;;;;;0.40;0.40;;;15.60;99.90;;;;;;5094157;28;20043;-70
2023/06/15 05:09:13;;;;;;;0.40;0.40;;;15.70;99.90;;;;;;5094299;28;20032;-69
2023/06/15 05:11:38;;;;;;;0.40;0.40;;;15.70;99.90;;;;;;5094647;28;20075;-69
2023/06/15 05:14:04;;;;;;;0.70;0.70;;;15.80;99.90;;;;;;5094542;28;20372;-70
2023/06/15 05:16:30;;;;;;;0.30;0.30;;;15.90;99.90;;;;;;5094532;28;20545;-69
2023/06/15 05:18:55;;;;;;;0.30;0.30;;;15.90;99.90;;;;;;5094435;28;20044;-69
2023/06/15 05:21:22;;;;;;;0.40;0.40;;;16.00;99.90;;;;;;5094419;28;20047;-69
2023/06/15 05:23:47;;;;;;;0.82;0.50;;;16.20;99.90;;;;;;5094418;28;20157;-70
2023/06/15 05:26:13;;;;;;;0.57;0.57;;;16.40;99.90;;;;;;5094298;28;20097;-70
2023/06/15 05:28:39;;;;;;;0.40;0.40;;;16.70;99.90;;;;;;5094223;28;20050;-70
2023/06/15 05:31:08;;;;;;;0.77;0.77;;;16.90;99.90;;;;;;5094715;28;20126;-70
2023/06/15 05:33:34;;;;;;;0.80;0.80;;;17.30;99.90;;;;;;5094182;28;20090;-70
2023/06/15 05:36:00;;;;;;;0.50;0.50;;;17.70;99.90;;;;;;5094728;28;20047;-70
2023/06/15 05:38:26;;;;;;;0.40;0.40;;;18.10;99.90;;;;;;5094140;28;20118;-69
2023/06/15 05:40:51;;;;;;;0.40;0.40;;;18.30;99.90;;;;;;5092891;28;20040;-69
2023/06/15 05:43:17;;;;;;;0.30;0.30;;;18.60;99.90;;;;;;5093997;28;20044;-69
2023/06/15 05:45:43;;;;;;;0.30;0.30;;;18.80;99.90;;;;;;5093153;28;20040;-70
2023/06/15 05:48:08;;;;;;;0.30;0.30;;;19.00;99.90;;;;;;5093985;28;20047;-70
2023/06/15 05:50:35;;;;;;;0.30;0.30;;;19.30;99.90;;;;;;5094199;28;20069;-69
2023/06/15 05:53:01;;;;;;;0.30;0.30;;;19.40;99.90;;;;;;5094183;28;20073;-69
2023/06/15 05:55:27;;;;;;;0.40;0.40;;;19.60;99.90;;;;;;5093895;28;20498;-70
2023/06/15 05:57:52;;;;;;;0.30;0.30;;;19.80;99.90;;;;;;5092766;28;20044;-70
2023/06/15 06:00:18;;;;;;;0.30;0.30;;;19.90;99.90;;;;;;5093826;28;20040;-70
2023/06/15 06:02:44;;;;;;;0.57;0.57;;;20.20;99.90;;;;;;5093807;28;20172;-70
2023/06/15 06:05:10;;;;;;;0.30;0.30;;;20.30;99.90;;;;;;5093736;28;20131;-70
2023/06/15 06:07:35;;;;;;;0.40;0.40;;;20.50;99.70;;;;;;5093598;28;20089;-70
2023/06/15 06:10:01;;;;;;;0.30;0.30;;;20.70;98.70;;;;;;5093759;28;20115;-70
2023/06/15 06:12:26;;;;;;;0.50;0.50;;;20.80;99.20;;;;;;5093671;28;20376;-69
2023/06/15 06:14:52;;;;;;;0.30;0.30;;;21.00;98.70;;;;;;5094191;28;20035;-70
2023/06/15 06:17:17;;;;;;;0.40;0.40;;;21.10;99.40;;;;;;5095357;28;20123;-70
2023/06/15 06:19:43;;;;;;;0.67;0.67;;;21.20;98.00;;;;;;5097902;28;20043;-70
2023/06/15 06:22:09;;;;;;;0.30;0.30;;;21.30;98.30;;;;;;5097842;28;20574;-69
2023/06/15 06:24:34;;;;;;;0.30;0.30;;;21.40;98.60;;;;;;5097807;28;20036;-70
2023/06/15 06:27:00;;;;;;;0.30;0.30;;;21.60;97.90;;;;;;5097372;28;20101;-69
2023/06/15 06:29:26;;;;;;;0.30;0.30;;;21.50;95.60;;;;;;5097654;28;20032;-70
2023/06/15 06:31:51;;;;;;;0.30;0.30;;;21.60;96.30;;;;;;5097530;28;20486;-70
2023/06/15 06:34:17;;;;;;;0.67;0.37;;;21.50;96.40;;;;;;5097895;28;20042;-70
2023/06/15 06:36:43;;;;;;;0.30;0.30;;;21.60;95.10;;;;;;5097226;28;20434;-70
2023/06/15 06:39:09;;;;;;;0.75;0.70;;;21.70;95.20;;;;;;5096339;28;20082;-70
2023/06/15 06:41:34;;;;;;;0.20;0.20;;;21.70;96.00;;;;;;5097398;28;20028;-70
2023/06/15 06:44:00;;;;;;;0.30;0.30;;;21.80;95.10;;;;;;5097318;28;20089;-70
2023/06/15 06:46:26;;;;;;;0.30;0.30;;;21.80;96.00;;;;;;5097724;28;20105;-70
2023/06/15 06:48:51;;;;;;;0.30;0.30;;;22.00;95.10;;;;;;5097324;28;20040;-70
2023/06/15 06:51:17;;;;;;;0.30;0.30;;;22.00;94.40;;;;;;5097297;28;20115;-70
2023/06/15 06:53:43;;;;;;;0.30;0.30;;;22.10;94.40;;;;;;5097094;28;20090;-69
2023/06/15 06:56:08;;;;;;;0.37;0.37;;;22.10;94.90;;;;;;5097246;28;20040;-69
2023/06/15 06:58:35;;;;;;;0.30;0.30;;;22.20;94.90;;;;;;5096942;28;20475;-69
2023/06/15 07:01:00;;;;;;;0.30;0.30;;;22.30;93.90;;;;;;5097097;28;20040;-69
2023/06/15 07:03:26;;;;;;;0.37;0.37;;;22.40;94.20;;;;;;5096696;28;20093;-69
2023/06/15 07:05:52;;;;;;;0.40;0.40;;;22.50;93.40;;;;;;5097091;28;20055;-70
2023/06/15 07:08:18;;;;;;;0.40;0.40;;;22.60;94.70;;;;;;5097029;28;20480;-70
2023/06/15 07:10:43;;;;;;;0.43;0.43;;;22.60;94.30;;;;;;5096852;28;20036;-70
2023/06/15 07:13:09;;;;;;;0.30;0.30;;;22.60;92.50;;;;;;5096802;28;20038;-70
2023/06/15 07:15:35;;;;;;;0.40;0.40;;;22.70;93.30;;;;;;5097501;28;20040;-69
2023/06/15 07:18:00;;;;;;;0.50;0.50;;;22.80;93.60;;;;;;5096375;28;20135;-70
2023/06/15 07:20:26;;;;;;;0.30;0.30;;;22.80;92.70;;;;;;5097011;28;20040;-70
2023/06/15 07:22:51;;;;;;;0.30;0.30;;;22.80;92.50;;;;;;5095525;28;20040;-70
2023/06/15 07:25:17;;;;;;;0.30;0.30;;;22.90;92.10;;;;;;5096592;28;20468;-70
2023/06/15 07:27:42;;;;;;;0.30;0.30;;;23.00;92.60;;;;;;5095300;28;20127;-70
2023/06/15 07:30:09;;;;;;;0.30;0.30;;;23.10;91.50;;;;;;5096397;28;20044;-70
2023/06/15 07:32:34;;;;;;;0.30;0.30;;;23.20;91.90;;;;;;5096502;28;20059;-69
2023/06/15 07:35:00;;;;;;;0.30;0.30;;;23.30;92.10;;;;;;5096432;28;20111;-70
2023/06/15 07:37:25;;;;;;;0.30;0.30;;;23.50;91.90;;;;;;5096287;28;20040;-70
2023/06/15 07:39:51;;;;;;;0.30;0.30;;;23.60;90.20;;;;;;5096466;28;20036;-70
2023/06/15 07:42:17;;;;;;;0.30;0.30;;;23.60;91.30;;;;;;5096256;28;20040;-69
2023/06/15 07:44:42;;;;;;;0.30;0.30;;;23.60;90.00;;;;;;5096350;28;20043;-70
2023/06/15 07:47:09;;;;;;;0.30;0.30;;;23.60;90.20;;;;;;5095901;28;20094;-69
2023/06/15 07:49:35;;;;;;;0.30;0.30;;;23.70;90.00;;;;;;5096222;28;20421;-70
2023/06/15 07:52:00;;;;;;;0.83;0.57;;;23.70;89.90;;;;;;5096004;28;20123;-70
2023/06/15 07:54:26;;;;;;;0.30;0.30;;;23.70;89.20;;;;;;5094907;28;20083;-70
2023/06/15 07:56:51;;;;;;;0.30;0.30;;;23.80;90.00;;;;;;5096012;28;20165;-70
2023/06/15 07:59:17;;;;;;;0.30;0.30;;;23.80;89.70;;;;;;5094711;28;20460;-70
2023/06/15 08:01:42;;;;;;;0.30;0.30;;;23.80;88.80;;;;;;5095700;28;20036;-69
2023/06/15 08:04:09;;;;;;;0.50;0.50;;;23.90;90.00;;;;;;5095685;28;20111;-70
2023/06/15 08:06:35;;;;;;;1.17;0.60;;;24.00;90.00;;;;;;5095958;28;20048;-70
2023/06/15 08:09:01;;;;;;;0.30;0.30;;;24.10;90.10;;;;;;5095773;28;20036;-70
2023/06/15 08:11:27;;;;;;;0.40;0.40;;;24.10;89.20;;;;;;5095815;28;20398;-69
2023/06/15 08:13:53;;;;;;;0.30;0.30;;;24.30;90.00;;;;;;5095701;28;20118;-70
2023/06/15 08:16:19;;;;;;;0.30;0.30;;;24.40;88.30;;;;;;5095664;28;20482;-70
2023/06/15 08:18:44;;;;;;;0.30;0.30;;;24.60;88.30;;;;;;5095587;28;20089;-69
2023/06/15 08:21:10;;;;;;;1.40;0.50;;;24.60;88.10;;;;;;5095592;28;20172;-69
2023/06/15 08:23:36;;;;;;;0.30;0.30;;;24.60;86.30;;;;;;5095572;28;20051;-70
2023/06/15 08:26:02;;;;;;;2.10;0.97;;;24.70;88.30;;;;;;5095430;28;20032;-70
2023/06/15 08:28:27;;;;;;;0.35;0.35;;;24.70;85.40;;;;;;5095343;28;20550;-70
2023/06/15 08:30:53;;;;;;;0.30;0.30;;;24.70;85.90;;;;;;5095028;28;20040;-70
2023/06/15 08:33:18;;;;;;;0.30;0.30;;;24.70;87.10;;;;;;5095590;28;20032;-70
2023/06/15 08:35:44;;;;;;;0.30;0.30;;;24.80;86.50;;;;;;5095181;28;20044;-70
2023/06/15 08:38:10;;;;;;;0.30;0.30;;;25.00;86.30;;;;;;5095086;28;20413;-70
2023/06/15 08:40:36;;;;;;;1.23;0.43;;;25.00;85.00;;;;;;5094230;28;20422;-69
2023/06/15 08:43:05;;;;;;;0.87;0.87;;;25.00;85.30;;;;;;5093585;28;20079;-70
2023/06/15 08:45:42;;;;;;;0.30;0.30;;;25.10;86.10;;;;;;5094123;28;20079;-70
2023/06/15 08:48:10;;;;;;;0.30;0.30;;;25.10;86.00;;;;;;5095130;28;20117;-70
2023/06/15 08:50:38;;;;;;;0.82;0.77;;;25.30;86.70;;;;;;5094997;28;20449;-69
2023/06/15 08:53:06;;;;;;;0.30;0.30;;;25.40;86.10;;;;;;5093905;28;20040;-70
2023/06/15 08:55:33;;;;;;;0.30;0.30;;;25.40;83.80;;;;;;5094739;28;20083;-70
2023/06/15 08:57:59;;;;;;;0.60;0.60;;;25.40;85.40;;;;;;5094587;28;20041;-69
2023/06/15 09:00:25;;;;;;;;;;;25.40;85.30;;;;;;5095173;28;20127;-69
2023/06/15 09:02:53;;;;;;;0.30;0.30;;;25.60;83.90;;;;;;5094664;28;19974;-69
2023/06/15 09:05:19;;;;;;;0.35;0.35;;;25.60;83.80;;;;;;5094340;28;20044;-70
2023/06/15 09:07:45;;;;;;;0.83;0.70;;;25.70;83.90;;;;;;5094821;28;20440;-70
2023/06/15 09:10:11;;;;;;;0.60;0.60;;;25.90;83.20;;;;;;5094570;28;20472;-70
2023/06/15 09:13:01;;;;;;;0.50;0.50;;;25.90;82.00;;;;;;5094632;28;20040;-70
2023/06/15 09:15:28;;;;;;;0.50;0.50;;;26.00;80.30;;;;;;5094097;28;20476;-70
2023/06/15 09:17:55;;;;;;;0.30;0.30;;;26.20;79.20;;;;;;5094237;28;20421;-70
2023/06/15 09:20:24;;;;;;;0.30;0.30;;;26.20;81.60;;;;;;5094555;28;20161;-69
2023/06/15 09:22:50;;;;;;;3.92;0.50;;;26.20;78.40;;;;;;5094333;28;20212;-69
2023/06/15 09:25:20;;;;;;;0.40;0.40;;;26.10;78.50;;;;;;5094897;28;20110;-70
2023/06/15 09:27:59;;;;;;;0.30;0.30;;;26.00;79.50;;;;;;5094183;28;20494;-70
2023/06/15 09:30:36;;;;;;;0.40;0.40;;;26.10;79.30;;;;;;5093383;28;20028;-70
2023/06/15 09:33:18;;;;;;;0.30;0.30;;;26.10;79.90;;;;;;5094402;28;20028;-71
2023/06/15 09:36:05;;;;;;;0.30;0.30;;;25.90;78.10;;;;;;5094706;28;20032;-70
2023/06/15 09:38:46;;;;;;;0.40;0.40;;;26.00;80.50;;;;;;5094085;28;20047;-70
2023/06/15 09:41:14;;;;;;;0.55;0.55;;;26.00;76.00;;;;;;5094191;28;20472;-70
2023/06/15 09:43:40;;;;;;;0.20;0.20;;;26.00;77.40;;;;;;5076435;28;20048;-69
2023/06/15 09:46:16;;;;;;;0.40;0.40;;;26.10;77.50;;;;;;5094215;28;20442;-70
2023/06/15 09:48:46;;;;;;;0.20;0.20;;;26.20;78.60;;;;;;5094425;28;20036;-70
2023/06/15 09:51:13;;;;;;;0.30;0.30;;;26.40;77.30;;;;;;5094056;28;20044;-70
2023/06/15 09:53:40;;;;;;;0.20;0.20;;;26.50;76.00;;;;;;5093869;28;20076;-70
2023/06/15 09:56:06;;;;;;;0.40;0.40;;;26.60;76.20;;;;;;5093955;28;20118;-70
2023/06/15 09:58:32;;;;;;;0.20;0.20;;;26.60;75.70;;;;;;5093811;28;20077;-69
2023/06/15 10:00:58;;;;;;;0.30;0.30;;;26.60;72.80;;;;;;5093711;28;20499;-70
2023/06/15 10:03:25;;;;;;;0.30;0.30;;;26.80;75.70;;;;;;5093865;28;20444;-71
2023/06/15 10:05:58;;;;;;;0.50;0.50;;;26.90;73.80;;;;;;5093808;28;20134;-70
2023/06/15 10:08:26;;;;;;;0.30;0.30;;;27.00;74.50;;;;;;5093660;28;20044;-70
2023/06/15 10:10:54;;;;;;;0.20;0.20;;;27.10;76.80;;;;;;5093699;28;20040;-70
2023/06/15 10:13:26;;;;;;;0.47;0.47;;;27.20;76.40;;;;;;5093781;28;20047;-70
2023/06/15 10:15:55;;;;;;;0.52;0.50;;;27.20;74.60;;;;;;5094093;28;20091;-70
2023/06/15 10:18:22;;;;;;;0.30;0.30;;;27.30;72.60;;;;;;5093651;28;20051;-69
2023/06/15 10:20:52;;;;;;;0.30;0.30;;;27.30;72.90;;;;;;5093675;28;20547;-70
2023/06/15 10:23:23;;;;;;;0.30;0.30;;;27.30;72.70;;;;;;5093692;28;20040;-70
2023/06/15 10:25:49;;;;;;;0.30;0.30;;;27.40;73.50;;;;;;5094169;28;20051;-71
2023/06/15 10:28:21;;;;;;;0.20;0.20;;;27.50;72.60;;;;;;5093465;28;20042;-69
2023/06/15 10:31:15;;;;;;;0.30;0.30;;;27.40;72.60;;;;;;5093716;28;20048;-69
2023/06/15 10:33:54;;;;;;;0.30;0.30;;;27.20;71.60;;;;;;5093634;28;20480;-69
2023/06/15 10:36:20;;;;;;;0.40;0.40;;;27.30;71.70;;;;;;5094301;28;20040;-69
2023/06/15 10:38:54;;;;;;;0.30;0.30;;;27.30;71.40;;;;;;5093419;28;20042;-70
2023/06/15 10:41:21;;;;;;;0.43;0.40;;;27.40;73.00;;;;;;5093336;28;20085;-70
2023/06/15 10:43:57;;;;;;;0.32;0.32;;;27.50;71.90;;;;;;5093353;28;20044;-70
2023/06/15 10:46:31;;;;;;;0.40;0.40;;;27.50;71.20;;;;;;5092214;28;20036;-70
2023/06/15 10:49:04;;;;;;;0.40;0.40;;;27.60;72.70;;;;;;5093779;28;20040;-70
2023/06/15 10:51:33;;;;;;;0.40;0.40;;;27.50;68.50;;;;;;5093428;28;20040;-70
2023/06/15 10:53:59;;;;;;;0.20;0.20;;;27.40;70.10;;;;;;5093330;28;20115;-70
2023/06/15 10:56:27;;;;;;;0.50;0.50;;;27.60;71.80;;;;;;5093260;28;20086;-70
2023/06/15 10:58:58;;;;;;;1.58;1.48;;;27.70;71.20;;;;;;5093154;28;20049;-71
2023/06/15 11:01:29;;;;;;;0.40;0.40;;;27.80;73.50;;;;;;5092223;28;20051;-71
2023/06/15 11:03:56;;;;;;;0.30;0.30;;;27.80;72.30;;;;;;5094571;28;20039;-71
2023/06/15 11:06:36;;;;;;;0.57;0.52;;;27.80;72.90;;;;;;5097072;28;20444;-71
2023/06/15 11:09:04;;;;;;;0.22;0.22;;;27.80;73.70;;;;;;5096992;28;20036;-70
2023/06/15 11:11:31;;;;;;;1.10;0.82;;;27.90;74.00;;;;;;5096546;28;20052;-70
2023/06/15 11:14:02;;;;;;;0.35;0.35;;;28.00;70.70;;;;;;5097220;28;20036;-70
2023/06/15 11:16:36;;;;;;;0.38;0.38;;;28.10;69.30;;;;;;5096875;28;20069;-71
2023/06/15 11:19:11;;;;;;;6.80;1.13;;;28.10;68.70;;;;;;5096632;28;20536;-70
2023/06/15 11:22:05;;;;;;;0.43;0.43;;;28.30;68.60;;;;;;5096704;28;20143;-70
2023/06/15 11:24:37;;;;;;;0.30;0.30;;;28.30;66.40;;;;;;5092977;28;20067;-70
2023/06/15 11:27:12;;;;;;;0.20;0.20;;;28.20;65.90;;;;;;5096580;28;20047;-70
2023/06/15 11:29:40;;;;;;;0.30;0.30;;;28.30;65.80;;;;;;5096594;28;20044;-70
2023/06/15 11:32:07;;;;;;;0.30;0.30;;;28.40;67.70;;;;;;5096360;28;20142;-70
2023/06/15 11:34:34;;;;;;;0.30;0.30;;;28.40;67.50;;;;;;5096437;28;20383;-71
2023/06/15 11:37:00;;;;;;;0.30;0.30;;;28.20;66.70;;;;;;5096396;28;20075;-71
2023/06/15 11:39:28;;;;;;;0.20;0.20;;;28.30;66.30;;;;;;5096303;28;20120;-70
2023/06/15 11:41:56;;;;;;;1.08;0.73;;;28.30;67.60;;;;;;5096556;28;20035;-70
2023/06/15 11:44:22;;;;;;;0.20;0.20;;;28.30;63.60;;;;;;5096254;28;20048;-70
2023/06/15 11:46:53;;;;;;;0.30;0.30;;;28.30;64.80;;;;;;5096419;28;20035;-70
2023/06/15 11:49:18;;;;;;;0.50;0.50;;;28.40;66.50;;;;;;5096586;28;20040;-71
2023/06/15 11:51:47;;;;;;;0.20;0.20;;;28.50;67.30;;;;;;5095679;28;20043;-71
2023/06/15 11:54:13;;;;;;;0.30;0.30;;;28.50;65.40;;;;;;5096404;28;20379;-70
2023/06/15 11:56:48;;;;;;;0.30;0.30;;;28.60;65.50;;;;;;5096047;28;20058;-70
2023/06/15 11:59:18;;;;;;;0.30;0.30;;;28.60;63.00;;;;;;5095946;28;20058;-71
2023/06/15 12:01:45;;;;;;;0.20;0.20;;;28.50;63.00;;;;;;5095987;28;20500;-70
2023/06/15 12:04:12;;;;;;;0.20;0.20;;;28.60;64.50;;;;;;5095742;28;20087;-70
2023/06/15 12:06:41;;;;;;;0.50;0.50;;;28.70;64.00;;;;;;5096275;28;20052;-71
2023/06/15 12:09:07;;;;;;;0.20;0.20;;;28.80;62.90;;;;;;5094863;28;20418;-70
2023/06/15 12:11:33;;;;;;;0.47;0.47;;;28.90;65.20;;;;;;5095774;28;20377;-70
2023/06/15 12:14:08;;;;;;;0.30;0.30;;;28.90;63.90;;;;;;5095621;28;20040;-72
2023/06/15 12:16:35;;;;;;;0.20;0.20;;;28.90;65.10;;;;;;5095607;28;20421;-71
2023/06/15 12:19:01;;;;;;;;;;;28.90;64.40;;;;;;5095990;28;20101;-71
2023/06/15 12:21:31;;;;;;;0.20;0.20;;;28.90;64.00;;;;;;5095593;28;20036;-70
2023/06/15 12:23:56;;;;;;;0.40;0.40;;;28.90;64.80;;;;;;5094536;28;20044;-71
2023/06/15 12:26:28;;;;;;;0.40;0.40;;;29.00;65.10;;;;;;5095579;28;20051;-71
2023/06/15 12:28:55;;;;;;;0.20;0.20;;;29.10;65.30;;;;;;5095415;28;20044;-70
2023/06/15 12:31:21;;;;;;;0.85;0.85;;;29.10;62.90;;;;;;5095106;28;20035;-71
2023/06/15 12:33:50;;;;;;;0.20;0.20;;;29.10;62.70;;;;;;5095300;28;20051;-71
2023/06/15 12:36:16;;;;;;;0.20;0.20;;;29.00;63.70;;;;;;5095532;28;20043;-71
2023/06/15 12:38:46;;;;;;;0.20;0.20;;;29.10;62.80;;;;;;5095192;28;20066;-71
2023/06/15 12:41:15;;;;;;;0.20;0.20;;;29.20;63.20;;;;;;5095155;28;20473;-71
2023/06/15 12:43:42;;;;;;;0.30;0.30;;;29.20;63.10;;;;;;5095107;28;20047;-71
2023/06/15 12:46:08;;;;;;;0.35;0.35;;;29.10;63.80;;;;;;5095141;28;20048;-71
2023/06/15 12:48:33;;;;;;;0.30;0.30;;;29.10;64.20;;;;;;5095004;28;20035;-71
2023/06/15 12:51:00;;;;;;;0.25;0.25;;;29.20;64.00;;;;;;5095236;28;20032;-71